createdAt,value
2023-03-17T00:01:56.853Z,66.11
2023-03-17T00:04:27.331Z,65.78
2023-03-17T00:06:55.136Z,65.59
2023-03-17T00:09:22.789Z,65.88
2023-03-17T00:11:50.848Z,65.87
2023-03-17T00:14:19.771Z,65.75
2023-03-17T00:16:52.763Z,65.64
2023-03-17T00:19:32.221Z,65.50
2023-03-17T00:22:01.386Z,65.38
2023-03-17T00:24:29.632Z,65.66
2023-03-17T00:26:56.665Z,65.49
2023-03-17T00:29:25.381Z,65.35
2023-03-17T00:31:53.566Z,65.18
2023-03-17T00:34:23.425Z,65.38
2023-03-17T00:36:51.419Z,65.26
2023-03-17T00:39:19.690Z,65.41
2023-03-17T00:41:50.154Z,65.55
2023-03-17T00:44:17.539Z,65.66
2023-03-17T00:46:44.794Z,65.60
2023-03-17T00:49:23.920Z,65.57
2023-03-17T00:51:51.545Z,65.79
2023-03-17T00:54:20.789Z,65.75
2023-03-17T00:56:51.022Z,65.81
2023-03-17T00:59:26.231Z,65.70
2023-03-17T01:01:54.156Z,65.54
2023-03-17T01:04:22.049Z,65.50
2023-03-17T01:06:50.349Z,65.58
2023-03-17T01:09:25.901Z,65.33
2023-03-17T01:11:55.121Z,65.53
2023-03-17T01:14:23.174Z,65.67
2023-03-17T01:16:50.528Z,65.70
2023-03-17T01:19:17.980Z,65.56
2023-03-17T01:21:46.480Z,65.60
2023-03-17T01:24:15.047Z,65.74
2023-03-17T01:26:42.071Z,65.91
2023-03-17T01:29:09.227Z,65.94
2023-03-17T01:31:36.389Z,66.08
2023-03-17T01:34:06.234Z,66.24
2023-03-17T01:36:34.366Z,66.11
2023-03-17T01:39:01.777Z,66.17
2023-03-17T01:41:28.740Z,66.64
2023-03-17T01:43:55.732Z,66.31
2023-03-17T01:46:36.115Z,66.15
2023-03-17T01:49:31.923Z,66.12
2023-03-17T01:52:07.506Z,66.26
2023-03-17T01:54:46.141Z,66.18
2023-03-17T01:57:28.656Z,66.32
2023-03-17T02:00:19.756Z,66.35
2023-03-17T02:02:51.651Z,66.49
2023-03-17T02:05:25.960Z,66.66
2023-03-17T02:07:55.592Z,66.45
2023-03-17T02:10:29.826Z,66.47
2023-03-17T02:13:02.768Z,66.36
2023-03-17T02:15:46.592Z,66.53
2023-03-17T02:18:15.271Z,66.67
2023-03-17T02:20:47.940Z,66.77
2023-03-17T02:23:22.880Z,66.92
2023-03-17T02:25:53.683Z,66.89
2023-03-17T02:28:29.207Z,67.34
2023-03-17T02:30:57.331Z,67.36
2023-03-17T02:33:24.387Z,67.47
2023-03-17T02:35:55.180Z,67.55
2023-03-17T02:38:22.181Z,67.65
2023-03-17T02:40:49.334Z,67.76
2023-03-17T02:43:16.774Z,67.79
2023-03-17T02:45:43.859Z,67.91
2023-03-17T02:48:12.220Z,67.90
2023-03-17T02:50:39.314Z,68.17
2023-03-17T02:53:07.582Z,68.07
2023-03-17T02:55:34.828Z,68.20
2023-03-17T02:58:03.434Z,67.97
2023-03-17T03:00:30.973Z,67.81
2023-03-17T03:02:58.149Z,67.94
2023-03-17T03:05:25.380Z,67.77
2023-03-17T03:07:52.758Z,67.81
2023-03-17T03:10:19.942Z,67.67
2023-03-17T03:12:47.289Z,67.47
2023-03-17T03:15:14.607Z,67.69
2023-03-17T03:17:42.072Z,67.59
2023-03-17T03:20:11.583Z,67.65
2023-03-17T03:22:39.006Z,67.61
2023-03-17T03:25:08.781Z,67.63
2023-03-17T03:27:36.065Z,67.50
2023-03-17T03:30:04.443Z,67.84
2023-03-17T03:32:31.600Z,67.68
2023-03-17T03:34:58.650Z,67.63
2023-03-17T03:37:26.035Z,67.67
2023-03-17T03:39:53.122Z,67.75
2023-03-17T03:42:20.156Z,67.72
2023-03-17T03:44:47.106Z,67.77
2023-03-17T03:47:14.107Z,67.73
2023-03-17T03:49:41.168Z,67.70
2023-03-17T03:52:08.835Z,67.81
2023-03-17T03:54:35.882Z,67.96
2023-03-17T03:57:02.911Z,67.90
2023-03-17T03:59:30.647Z,68.05
2023-03-17T04:01:57.615Z,67.89
2023-03-17T04:04:24.615Z,67.93
2023-03-17T04:06:51.567Z,68.16
2023-03-17T04:09:18.636Z,68.07
2023-03-17T04:11:45.941Z,68.15
2023-03-17T04:14:13.288Z,68.33
2023-03-17T04:16:43.263Z,68.54
2023-03-17T04:19:11.253Z,68.48
2023-03-17T04:21:38.282Z,68.49
2023-03-17T04:24:05.939Z,68.62
2023-03-17T04:26:32.922Z,69.05
2023-03-17T04:29:00.160Z,69.04
2023-03-17T04:31:27.487Z,69.26
2023-03-17T04:33:54.622Z,69.24
2023-03-17T04:36:23.885Z,69.42
2023-03-17T04:38:51.017Z,69.65
2023-03-17T04:41:18.086Z,69.79
2023-03-17T04:43:45.524Z,70.00
2023-03-17T04:46:13.859Z,70.12
2023-03-17T04:48:41.412Z,70.26
2023-03-17T04:51:10.404Z,70.31
2023-03-17T04:53:38.762Z,70.22
2023-03-17T04:56:06.513Z,70.75
2023-03-17T04:58:33.506Z,70.75
2023-03-17T05:01:02.424Z,70.77
2023-03-17T05:03:31.039Z,70.87
2023-03-17T05:05:59.196Z,70.83
2023-03-17T05:08:28.342Z,71.20
2023-03-17T05:10:57.271Z,71.12
2023-03-17T05:13:26.385Z,71.20
2023-03-17T05:15:55.668Z,71.04
2023-03-17T05:18:25.548Z,71.04
2023-03-17T05:20:53.150Z,71.02
2023-03-17T05:23:20.748Z,70.95
2023-03-17T05:25:48.912Z,71.12
2023-03-17T05:28:16.082Z,70.93
2023-03-17T05:30:43.577Z,70.99
2023-03-17T05:33:10.651Z,71.01
2023-03-17T05:35:37.984Z,71.04
2023-03-17T05:38:05.007Z,71.02
2023-03-17T05:40:32.705Z,71.07
2023-03-17T05:42:59.902Z,71.12
2023-03-17T05:45:26.872Z,71.26
2023-03-17T05:47:54.175Z,71.19
2023-03-17T05:50:21.595Z,71.17
2023-03-17T05:52:48.858Z,71.29
2023-03-17T05:55:16.139Z,71.36
2023-03-17T05:57:43.200Z,71.42
2023-03-17T06:00:13.190Z,71.48
2023-03-17T06:02:40.413Z,72.00
2023-03-17T06:05:08.835Z,72.09
2023-03-17T06:07:50.876Z,71.84
2023-03-17T06:10:20.577Z,71.46
2023-03-17T06:12:47.668Z,71.65
2023-03-17T06:15:17.004Z,71.57
2023-03-17T06:17:44.496Z,71.10
2023-03-17T06:20:13.085Z,71.02
2023-03-17T06:22:51.710Z,70.85
2023-03-17T06:25:27.941Z,70.13
2023-03-17T06:27:56.147Z,69.86
2023-03-17T06:30:23.197Z,69.96
2023-03-17T06:32:50.377Z,69.88
2023-03-17T06:35:18.138Z,69.82
2023-03-17T06:37:45.238Z,69.83
2023-03-17T06:40:13.334Z,69.80
2023-03-17T06:42:40.418Z,69.53
2023-03-17T06:45:09.384Z,69.62
2023-03-17T06:47:37.320Z,69.63
2023-03-17T06:50:05.593Z,69.56
2023-03-17T06:52:32.530Z,69.21
2023-03-17T06:54:59.515Z,68.93
2023-03-17T06:57:26.982Z,68.70
2023-03-17T06:59:54.304Z,68.57
2023-03-17T07:02:21.339Z,68.39
2023-03-17T07:04:48.662Z,68.40
2023-03-17T07:07:16.285Z,67.82
2023-03-17T07:09:43.293Z,68.06
2023-03-17T07:12:10.488Z,67.99
2023-03-17T07:14:37.878Z,68.17
2023-03-17T07:17:06.737Z,67.78
2023-03-17T07:19:35.124Z,67.43
2023-03-17T07:22:02.236Z,67.28
2023-03-17T07:24:29.238Z,67.07
2023-03-17T07:26:56.232Z,66.64
2023-03-17T07:29:23.421Z,66.39
2023-03-17T07:31:50.696Z,66.23
2023-03-17T07:34:17.907Z,66.11
2023-03-17T07:36:44.946Z,65.95
2023-03-17T07:39:12.765Z,65.66
2023-03-17T07:41:39.846Z,65.54
2023-03-17T07:44:11.402Z,65.57
2023-03-17T07:46:39.011Z,65.54
2023-03-17T07:49:06.295Z,65.24
2023-03-17T07:51:33.401Z,64.61
2023-03-17T07:54:03.991Z,64.47
2023-03-17T07:56:32.696Z,64.39
2023-03-17T07:59:00.124Z,63.95
2023-03-17T08:01:28.091Z,63.82
2023-03-17T08:03:56.468Z,63.77
2023-03-17T08:06:27.147Z,63.65
2023-03-17T08:08:55.311Z,63.01
2023-03-17T08:11:23.390Z,63.32
2023-03-17T08:13:50.992Z,63.16
2023-03-17T08:16:18.096Z,63.11
2023-03-17T08:18:45.170Z,62.92
2023-03-17T08:21:14.095Z,62.21
2023-03-17T08:23:43.142Z,62.71
2023-03-17T08:26:10.353Z,62.78
2023-03-17T08:28:37.595Z,62.45
2023-03-17T08:31:17.411Z,62.23
2023-03-17T08:33:52.472Z,62.03
2023-03-17T08:36:20.973Z,62.27
2023-03-17T08:38:48.588Z,62.06
2023-03-17T08:41:23.736Z,61.34
2023-03-17T08:43:51.717Z,61.98
2023-03-17T08:46:32.243Z,61.82
2023-03-17T08:49:00.885Z,61.59
2023-03-17T08:51:34.673Z,61.47
2023-03-17T08:54:03.494Z,61.54
2023-03-17T08:56:30.514Z,61.19
2023-03-17T08:58:57.452Z,61.03
2023-03-17T09:01:24.878Z,60.91
2023-03-17T09:03:55.090Z,60.71
2023-03-17T09:06:22.962Z,60.56
2023-03-17T09:08:55.346Z,58.88
2023-03-17T09:11:29.680Z,59.50
2023-03-17T09:13:57.015Z,59.40
2023-03-17T09:16:25.414Z,58.80
2023-03-17T09:18:53.131Z,58.52
2023-03-17T09:21:21.229Z,58.33
2023-03-17T09:23:48.384Z,58.51
2023-03-17T09:26:15.698Z,58.52
2023-03-17T09:28:42.883Z,58.79
2023-03-17T09:31:12.464Z,57.82
2023-03-17T09:33:41.615Z,58.49
2023-03-17T09:36:10.728Z,58.22
2023-03-17T09:38:38.957Z,57.85
2023-03-17T09:41:23.544Z,56.79
2023-03-17T09:44:28.867Z,57.56
2023-03-17T09:47:46.137Z,57.92
2023-03-17T09:50:28.435Z,57.21
2023-03-17T09:52:58.443Z,56.83
2023-03-17T09:55:31.715Z,55.88
2023-03-17T09:58:00.800Z,56.10
2023-03-17T10:00:31.108Z,56.43
2023-03-17T10:02:59.783Z,56.01
2023-03-17T10:05:32.012Z,55.73
2023-03-17T10:08:30.728Z,54.69
2023-03-17T10:11:28.487Z,55.33
2023-03-17T10:14:04.846Z,55.15
2023-03-17T10:16:41.476Z,55.55
2023-03-17T10:19:35.275Z,54.36
2023-03-17T10:22:28.629Z,54.14
2023-03-17T10:25:04.333Z,52.92
2023-03-17T10:27:37.356Z,53.12
2023-03-17T10:30:15.232Z,52.82
2023-03-17T10:32:43.541Z,50.95
2023-03-17T10:35:12.408Z,50.26
2023-03-17T10:37:39.944Z,50.04
2023-03-17T10:40:20.736Z,50.96
2023-03-17T10:42:54.847Z,49.48
2023-03-17T10:45:29.672Z,48.85
2023-03-17T10:48:00.079Z,49.44
2023-03-17T10:50:39.961Z,49.34
2023-03-17T10:53:10.816Z,49.60
2023-03-17T10:55:37.759Z,47.44
2023-03-17T10:58:17.213Z,47.47
2023-03-17T11:01:23.088Z,46.18
2023-03-17T11:03:50.766Z,46.19
2023-03-17T11:06:30.706Z,47.09
2023-03-17T11:09:09.568Z,47.04
2023-03-17T11:11:46.498Z,47.28
2023-03-17T11:14:18.560Z,46.52
2023-03-17T11:16:57.562Z,46.44
2023-03-17T11:20:05.783Z,47.09
2023-03-17T11:22:46.489Z,47.59
2023-03-17T11:25:19.641Z,48.11
2023-03-17T11:28:05.645Z,48.54
2023-03-17T11:30:39.749Z,48.19
2023-03-17T11:33:34.664Z,48.12
2023-03-17T11:36:27.072Z,48.77
2023-03-17T11:38:59.698Z,48.19
2023-03-17T11:41:51.021Z,48.55
2023-03-17T11:44:49.063Z,48.56
2023-03-17T11:47:38.524Z,48.75
2023-03-17T11:50:30.649Z,48.06
2023-03-17T11:53:20.597Z,47.38
2023-03-17T11:56:00.213Z,47.12
2023-03-17T11:58:39.910Z,47.69
2023-03-17T12:01:14.120Z,45.33
2023-03-17T12:03:54.337Z,45.41
2023-03-17T12:06:36.790Z,45.55
2023-03-17T12:09:32.422Z,46.01
2023-03-17T12:12:03.120Z,46.50
2023-03-17T12:14:46.432Z,45.20
2023-03-17T12:17:33.118Z,45.33
2023-03-17T12:20:32.867Z,45.52
2023-03-17T12:23:16.501Z,45.87
2023-03-17T12:26:02.592Z,46.09
2023-03-17T12:28:40.913Z,46.63
2023-03-17T12:31:17.443Z,46.75
2023-03-17T12:34:28.542Z,47.16
2023-03-17T12:36:56.123Z,46.74
2023-03-17T12:39:37.482Z,46.03
2023-03-17T12:42:19.642Z,45.54
2023-03-17T12:45:04.835Z,44.72
2023-03-17T12:48:24.930Z,44.63
2023-03-17T12:51:31.142Z,45.34
2023-03-17T12:54:00.202Z,45.96
2023-03-17T12:56:36.693Z,45.32
2023-03-17T12:59:14.687Z,44.70
2023-03-17T13:02:15.554Z,45.13
2023-03-17T13:05:00.648Z,45.26
2023-03-17T13:07:45.421Z,45.27
2023-03-17T13:10:20.042Z,44.50
2023-03-17T13:12:46.936Z,43.55
2023-03-17T13:15:23.504Z,44.60
2023-03-17T13:18:16.612Z,44.80
2023-03-17T13:20:57.470Z,44.69
2023-03-17T13:23:37.512Z,43.91
2023-03-17T13:26:04.522Z,44.58
2023-03-17T13:28:34.926Z,44.91
2023-03-17T13:31:14.240Z,44.20
2023-03-17T13:33:52.076Z,44.41
2023-03-17T13:36:34.091Z,44.05
2023-03-17T13:39:37.835Z,43.97
2023-03-17T13:42:18.647Z,44.22
2023-03-17T13:45:10.875Z,44.15
2023-03-17T13:47:43.416Z,44.67
2023-03-17T13:50:30.045Z,44.89
2023-03-17T13:53:10.507Z,43.42
2023-03-17T13:55:41.896Z,43.26
2023-03-17T13:58:11.402Z,43.76
2023-03-17T14:00:49.078Z,43.06
2023-03-17T14:03:35.177Z,43.81
2023-03-17T14:06:08.145Z,43.63
2023-03-17T14:08:47.788Z,43.46
2023-03-17T14:11:39.277Z,43.74
2023-03-17T14:14:41.374Z,44.13
2023-03-17T14:17:41.711Z,44.18
2023-03-17T14:20:18.409Z,43.82
2023-03-17T14:22:53.856Z,44.30
2023-03-17T14:25:26.459Z,44.66
2023-03-17T14:27:57.732Z,45.32
2023-03-17T14:30:34.650Z,45.43
2023-03-17T14:33:06.599Z,45.03
2023-03-17T14:35:39.236Z,45.26
2023-03-17T14:38:28.362Z,44.55
2023-03-17T14:41:27.869Z,44.25
2023-03-17T14:44:00.285Z,44.49
2023-03-17T14:46:40.284Z,45.16
2023-03-17T14:49:19.211Z,45.58
2023-03-17T14:51:51.300Z,45.18
2023-03-17T14:54:31.361Z,45.45
2023-03-17T14:57:07.285Z,45.43
2023-03-17T14:59:38.698Z,45.50
2023-03-17T15:02:35.912Z,45.85
2023-03-17T15:05:43.230Z,45.64
2023-03-17T15:08:40.899Z,45.50
2023-03-17T15:11:14.656Z,45.74
2023-03-17T15:13:41.934Z,45.50
2023-03-17T15:16:22.743Z,45.72
2023-03-17T15:19:16.725Z,46.01
2023-03-17T15:21:43.782Z,46.58
2023-03-17T15:24:40.552Z,46.46
2023-03-17T15:27:18.798Z,45.65
2023-03-17T15:29:47.423Z,45.94
2023-03-17T15:32:24.819Z,45.46
2023-03-17T15:34:56.910Z,45.83
2023-03-17T15:37:29.458Z,46.50
2023-03-17T15:39:58.016Z,46.24
2023-03-17T15:42:30.695Z,46.27
2023-03-17T15:45:00.073Z,46.38
2023-03-17T15:47:31.500Z,46.97
2023-03-17T15:50:26.502Z,47.04
2023-03-17T15:52:55.611Z,47.45
2023-03-17T15:55:29.760Z,47.39
2023-03-17T15:57:58.576Z,47.22
2023-03-17T16:00:29.577Z,47.11
2023-03-17T16:03:02.682Z,47.52
2023-03-17T16:05:33.747Z,47.56
2023-03-17T16:08:00.753Z,47.93
2023-03-17T16:10:32.329Z,47.59
2023-03-17T16:12:59.504Z,47.85
2023-03-17T16:15:31.371Z,48.42
2023-03-17T16:18:02.142Z,48.86
2023-03-17T16:20:40.048Z,49.53
2023-03-17T16:23:17.650Z,49.63
2023-03-17T16:25:46.634Z,50.11
2023-03-17T16:28:32.321Z,50.05
2023-03-17T16:31:01.880Z,50.38
2023-03-17T16:33:38.069Z,50.91
2023-03-17T16:36:05.385Z,50.94
2023-03-17T16:38:34.134Z,51.42
2023-03-17T16:41:16.710Z,51.75
2023-03-17T16:43:46.471Z,51.93
2023-03-17T16:46:13.680Z,52.08
2023-03-17T16:48:40.685Z,52.37
2023-03-17T16:51:07.639Z,52.47
2023-03-17T16:53:35.931Z,52.69
2023-03-17T16:56:03.248Z,53.44
2023-03-17T16:58:36.775Z,53.34
2023-03-17T17:01:22.344Z,53.47
2023-03-17T17:03:50.196Z,53.77
2023-03-17T17:06:20.288Z,53.89
2023-03-17T17:08:49.391Z,53.93
2023-03-17T17:11:19.657Z,53.97
2023-03-17T17:13:49.231Z,54.21
2023-03-17T17:16:26.981Z,54.48
2023-03-17T17:18:54.731Z,54.40
2023-03-17T17:21:21.917Z,54.54
2023-03-17T17:23:50.525Z,54.53
2023-03-17T17:26:18.524Z,54.29
2023-03-17T17:28:45.562Z,54.58
2023-03-17T17:31:14.037Z,54.95
2023-03-17T17:33:41.067Z,55.35
2023-03-17T17:36:15.170Z,55.26
2023-03-17T17:38:42.892Z,55.41
2023-03-17T17:41:12.893Z,55.70
2023-03-17T17:43:41.159Z,55.76
2023-03-17T17:46:19.147Z,56.04
2023-03-17T17:48:47.880Z,56.21
2023-03-17T17:51:14.922Z,56.47
2023-03-17T17:53:41.965Z,56.66
2023-03-17T17:56:17.813Z,57.18
2023-03-17T17:58:45.785Z,57.16
2023-03-17T18:01:13.910Z,57.35
2023-03-17T18:03:42.852Z,57.49
2023-03-17T18:06:13.025Z,57.52
2023-03-17T18:08:41.161Z,57.77
2023-03-17T18:11:08.687Z,57.81
2023-03-17T18:13:36.195Z,57.73
2023-03-17T18:16:04.045Z,58.30
2023-03-17T18:18:32.564Z,58.50
2023-03-17T18:20:59.852Z,58.79
2023-03-17T18:23:27.433Z,58.95
2023-03-17T18:26:02.038Z,59.20
2023-03-17T18:28:29.381Z,59.41
2023-03-17T18:31:06.898Z,59.43
2023-03-17T18:33:34.081Z,59.69
2023-03-17T18:36:01.468Z,59.77
2023-03-17T18:38:28.620Z,59.90
2023-03-17T18:40:55.552Z,60.24
2023-03-17T18:43:22.526Z,60.18
2023-03-17T18:45:49.587Z,60.28
2023-03-17T18:48:16.550Z,60.04
2023-03-17T18:50:43.467Z,59.62
2023-03-17T18:53:10.374Z,59.96
2023-03-17T18:55:37.259Z,60.05
2023-03-17T18:58:04.322Z,59.86
2023-03-17T19:00:31.528Z,59.88
2023-03-17T19:02:58.646Z,60.26
2023-03-17T19:05:25.932Z,59.85
2023-03-17T19:07:52.816Z,59.74
2023-03-17T19:10:20.018Z,59.80
2023-03-17T19:12:47.335Z,59.77
2023-03-17T19:15:14.663Z,59.95
2023-03-17T19:17:42.967Z,59.79
2023-03-17T19:20:10.880Z,59.85
2023-03-17T19:22:37.930Z,59.98
2023-03-17T19:25:06.274Z,59.91
2023-03-17T19:27:33.193Z,59.84
2023-03-17T19:30:00.195Z,59.88
2023-03-17T19:32:27.471Z,59.74
2023-03-17T19:34:54.443Z,60.18
2023-03-17T19:37:21.389Z,59.89
2023-03-17T19:39:48.447Z,60.03
2023-03-17T19:42:16.139Z,60.01
2023-03-17T19:44:43.129Z,60.22
2023-03-17T19:47:10.037Z,60.39
2023-03-17T19:49:38.302Z,60.38
2023-03-17T19:52:07.580Z,60.17
2023-03-17T19:54:37.602Z,60.33
2023-03-17T19:57:05.267Z,60.50
2023-03-17T19:59:32.161Z,60.44
2023-03-17T20:01:59.158Z,60.76
2023-03-17T20:04:26.218Z,60.72
2023-03-17T20:06:56.870Z,61.04
2023-03-17T20:09:26.198Z,60.91
2023-03-17T20:11:56.088Z,60.99
2023-03-17T20:14:23.538Z,61.13
2023-03-17T20:16:51.942Z,60.96
2023-03-17T20:19:19.333Z,60.77
2023-03-17T20:21:46.290Z,60.89
2023-03-17T20:24:14.630Z,61.04
2023-03-17T20:26:45.737Z,61.07
2023-03-17T20:29:14.250Z,60.83
2023-03-17T20:31:42.177Z,61.00
2023-03-17T20:34:10.676Z,60.79
2023-03-17T20:36:42.112Z,61.02
2023-03-17T20:39:13.761Z,60.84
2023-03-17T20:41:41.304Z,60.88
2023-03-17T20:44:08.673Z,61.02
2023-03-17T20:46:35.793Z,61.13
2023-03-17T20:49:04.046Z,60.98
2023-03-17T20:51:32.346Z,61.02
2023-03-17T20:54:02.454Z,61.02
2023-03-17T20:56:31.354Z,61.00
2023-03-17T20:58:58.615Z,60.95
2023-03-17T21:01:26.632Z,61.07
2023-03-17T21:03:53.846Z,61.05
2023-03-17T21:06:21.159Z,61.06
2023-03-17T21:08:48.158Z,61.12
2023-03-17T21:11:19.473Z,61.06
2023-03-17T21:13:47.063Z,61.05
2023-03-17T21:16:25.102Z,60.98
2023-03-17T21:18:55.745Z,60.94
2023-03-17T21:21:24.684Z,61.06
2023-03-17T21:23:51.688Z,61.07
2023-03-17T21:26:19.443Z,61.11
2023-03-17T21:28:47.580Z,61.20
2023-03-17T21:31:15.970Z,61.22
2023-03-17T21:33:43.926Z,61.29
2023-03-17T21:36:11.203Z,61.44
2023-03-17T21:38:38.087Z,61.40
2023-03-17T21:41:34.005Z,61.25
2023-03-17T21:44:03.097Z,61.60
2023-03-17T21:46:31.714Z,61.55
2023-03-17T21:48:59.134Z,61.63
2023-03-17T21:51:27.266Z,61.54
2023-03-17T21:53:54.285Z,61.44
2023-03-17T21:56:21.522Z,61.62
2023-03-17T21:58:49.024Z,61.89
2023-03-17T22:01:17.968Z,61.75
2023-03-17T22:03:45.098Z,61.72
2023-03-17T22:06:13.884Z,61.81
2023-03-17T22:08:41.387Z,61.96
2023-03-17T22:11:12.092Z,62.04
2023-03-17T22:13:40.107Z,62.04
2023-03-17T22:16:12.107Z,62.05
2023-03-17T22:18:40.133Z,62.04
2023-03-17T22:21:10.827Z,62.18
2023-03-17T22:23:42.234Z,62.58
2023-03-17T22:26:13.436Z,62.31
2023-03-17T22:28:43.105Z,62.28
2023-03-17T22:31:22.913Z,62.43
2023-03-17T22:33:54.987Z,62.50
2023-03-17T22:36:23.936Z,62.46
2023-03-17T22:38:51.388Z,62.39
2023-03-17T22:41:23.248Z,62.58
2023-03-17T22:43:51.363Z,62.43
2023-03-17T22:46:19.909Z,62.30
2023-03-17T22:48:47.199Z,62.51
2023-03-17T22:51:22.044Z,62.53
2023-03-17T22:53:51.044Z,62.75
2023-03-17T22:56:19.530Z,62.93
2023-03-17T22:58:47.472Z,62.94
2023-03-17T23:01:17.025Z,63.21
2023-03-17T23:03:45.113Z,63.35
2023-03-17T23:06:13.256Z,63.21
2023-03-17T23:08:42.727Z,63.43
2023-03-17T23:11:18.262Z,63.70
2023-03-17T23:13:47.347Z,63.81
2023-03-17T23:16:15.217Z,64.10
2023-03-17T23:18:46.119Z,64.31
2023-03-17T23:21:35.823Z,64.46
2023-03-17T23:24:03.920Z,64.48
2023-03-17T23:26:32.110Z,64.46
2023-03-17T23:28:59.074Z,64.55
2023-03-17T23:31:26.199Z,64.65
2023-03-17T23:33:53.689Z,64.68
2023-03-17T23:36:21.344Z,64.87
2023-03-17T23:38:48.759Z,64.95
2023-03-17T23:41:17.453Z,65.01
2023-03-17T23:43:46.552Z,65.11
2023-03-17T23:46:14.696Z,65.25
2023-03-17T23:48:42.880Z,65.31
2023-03-17T23:51:12.423Z,65.63
2023-03-17T23:53:40.167Z,65.72
2023-03-17T23:56:08.226Z,65.96
2023-03-17T23:58:36.155Z,65.66
